sensor_id;sensor_type;location;lat;lon;timestamp;P1;durP1;ratioP1;P2;durP2;ratioP2
76807;SDS011;65758;45.458;11.062;2024-02-26T00:02:17;8.90;;;5.90;;
76807;SDS011;65758;45.458;11.062;2024-02-26T00:04:44;7.80;;;5.30;;
76807;SDS011;65758;45.458;11.062;2024-02-26T00:07:11;7.10;;;5.50;;
76807;SDS011;65758;45.458;11.062;2024-02-26T00:09:38;8.80;;;5.20;;
76807;SDS011;65758;45.458;11.062;2024-02-26T00:12:05;7.40;;;5.30;;
76807;SDS011;65758;45.458;11.062;2024-02-26T00:14:32;8.50;;;5.60;;
76807;SDS011;65758;45.458;11.062;2024-02-26T00:16:59;9.40;;;6.30;;
76807;SDS011;65758;45.458;11.062;2024-02-26T00:19:26;5.90;;;5.10;;
76807;SDS011;65758;45.458;11.062;2024-02-26T00:21:53;7.10;;;5.40;;
76807;SDS011;65758;45.458;11.062;2024-02-26T00:24:22;8.30;;;4.80;;
76807;SDS011;65758;45.458;11.062;2024-02-26T00:26:49;6.20;;;4.70;;
76807;SDS011;65758;45.458;11.062;2024-02-26T00:29:20;6.00;;;4.10;;
76807;SDS011;65758;45.458;11.062;2024-02-26T00:31:47;7.20;;;5.00;;
76807;SDS011;65758;45.458;11.062;2024-02-26T00:34:14;8.30;;;4.90;;
76807;SDS011;65758;45.458;11.062;2024-02-26T00:36:41;5.00;;;4.00;;
76807;SDS011;65758;45.458;11.062;2024-02-26T00:39:08;5.80;;;3.50;;
76807;SDS011;65758;45.458;11.062;2024-02-26T00:41:42;8.50;;;4.40;;
76807;SDS011;65758;45.458;11.062;2024-02-26T00:44:09;7.70;;;3.90;;
76807;SDS011;65758;45.458;11.062;2024-02-26T00:46:36;3.60;;;3.30;;
76807;SDS011;65758;45.458;11.062;2024-02-26T00:49:03;4.80;;;3.90;;
76807;SDS011;65758;45.458;11.062;2024-02-26T00:51:30;6.80;;;3.50;;
76807;SDS011;65758;45.458;11.062;2024-02-26T00:53:57;6.10;;;3.50;;
76807;SDS011;65758;45.458;11.062;2024-02-26T00:56:24;3.60;;;3.20;;
76807;SDS011;65758;45.458;11.062;2024-02-26T00:58:51;3.90;;;3.10;;
76807;SDS011;65758;45.458;11.062;2024-02-26T01:01:19;3.30;;;3.00;;
76807;SDS011;65758;45.458;11.062;2024-02-26T01:03:46;4.20;;;2.90;;
76807;SDS011;65758;45.458;11.062;2024-02-26T01:06:13;4.40;;;2.90;;
76807;SDS011;65758;45.458;11.062;2024-02-26T01:08:40;3.20;;;2.70;;
76807;SDS011;65758;45.458;11.062;2024-02-26T01:11:07;5.20;;;2.80;;
76807;SDS011;65758;45.458;11.062;2024-02-26T01:13:34;2.70;;;2.50;;
76807;SDS011;65758;45.458;11.062;2024-02-26T01:16:01;4.10;;;2.60;;
76807;SDS011;65758;45.458;11.062;2024-02-26T01:18:28;2.70;;;2.30;;
76807;SDS011;65758;45.458;11.062;2024-02-26T01:20:56;2.90;;;2.50;;
76807;SDS011;65758;45.458;11.062;2024-02-26T01:23:23;3.80;;;2.40;;
76807;SDS011;65758;45.458;11.062;2024-02-26T01:25:50;5.90;;;2.60;;
76807;SDS011;65758;45.458;11.062;2024-02-26T01:28:17;4.70;;;2.20;;
76807;SDS011;65758;45.458;11.062;2024-02-26T01:30:44;4.30;;;2.50;;
76807;SDS011;65758;45.458;11.062;2024-02-26T01:33:11;3.60;;;2.70;;
76807;SDS011;65758;45.458;11.062;2024-02-26T01:35:38;3.10;;;2.80;;
76807;SDS011;65758;45.458;11.062;2024-02-26T01:38:05;3.10;;;2.70;;
76807;SDS011;65758;45.458;11.062;2024-02-26T01:40:32;2.90;;;2.30;;
76807;SDS011;65758;45.458;11.062;2024-02-26T01:42:59;3.30;;;2.20;;
76807;SDS011;65758;45.458;11.062;2024-02-26T01:45:26;4.30;;;2.30;;
76807;SDS011;65758;45.458;11.062;2024-02-26T01:47:55;3.30;;;2.50;;
76807;SDS011;65758;45.458;11.062;2024-02-26T01:50:23;3.80;;;2.50;;
76807;SDS011;65758;45.458;11.062;2024-02-26T01:52:51;4.10;;;2.70;;
76807;SDS011;65758;45.458;11.062;2024-02-26T01:55:21;3.30;;;3.00;;
76807;SDS011;65758;45.458;11.062;2024-02-26T01:57:50;3.40;;;2.40;;
76807;SDS011;65758;45.458;11.062;2024-02-26T02:00:18;3.20;;;2.60;;
76807;SDS011;65758;45.458;11.062;2024-02-26T02:02:48;5.40;;;2.80;;
76807;SDS011;65758;45.458;11.062;2024-02-26T02:05:16;4.10;;;2.90;;
76807;SDS011;65758;45.458;11.062;2024-02-26T02:07:44;3.20;;;2.40;;
76807;SDS011;65758;45.458;11.062;2024-02-26T02:10:13;4.10;;;2.60;;
76807;SDS011;65758;45.458;11.062;2024-02-26T02:12:40;3.80;;;2.90;;
76807;SDS011;65758;45.458;11.062;2024-02-26T02:15:07;5.20;;;2.80;;
76807;SDS011;65758;45.458;11.062;2024-02-26T02:17:35;4.80;;;2.60;;
76807;SDS011;65758;45.458;11.062;2024-02-26T02:20:02;6.40;;;3.20;;
76807;SDS011;65758;45.458;11.062;2024-02-26T02:22:30;3.20;;;2.70;;
76807;SDS011;65758;45.458;11.062;2024-02-26T02:24:59;4.00;;;2.80;;
76807;SDS011;65758;45.458;11.062;2024-02-26T02:27:27;3.90;;;2.90;;
76807;SDS011;65758;45.458;11.062;2024-02-26T02:29:55;6.10;;;3.10;;
76807;SDS011;65758;45.458;11.062;2024-02-26T02:32:22;3.30;;;2.60;;
76807;SDS011;65758;45.458;11.062;2024-02-26T02:34:52;4.30;;;3.20;;
76807;SDS011;65758;45.458;11.062;2024-02-26T02:37:19;5.20;;;3.20;;
76807;SDS011;65758;45.458;11.062;2024-02-26T02:39:46;4.40;;;2.60;;
76807;SDS011;65758;45.458;11.062;2024-02-26T02:42:13;4.50;;;3.40;;
76807;SDS011;65758;45.458;11.062;2024-02-26T02:44:40;4.00;;;2.90;;
76807;SDS011;65758;45.458;11.062;2024-02-26T02:47:07;8.40;;;3.50;;
76807;SDS011;65758;45.458;11.062;2024-02-26T02:49:34;4.40;;;3.20;;
76807;SDS011;65758;45.458;11.062;2024-02-26T02:52:01;3.80;;;3.00;;
76807;SDS011;65758;45.458;11.062;2024-02-26T02:54:28;5.30;;;3.40;;
76807;SDS011;65758;45.458;11.062;2024-02-26T02:56:55;4.90;;;3.40;;
76807;SDS011;65758;45.458;11.062;2024-02-26T02:59:22;5.60;;;3.30;;
76807;SDS011;65758;45.458;11.062;2024-02-26T03:01:50;7.50;;;3.40;;
76807;SDS011;65758;45.458;11.062;2024-02-26T03:04:17;5.60;;;3.60;;
76807;SDS011;65758;45.458;11.062;2024-02-26T03:06:44;6.30;;;3.50;;
76807;SDS011;65758;45.458;11.062;2024-02-26T03:09:11;4.50;;;3.50;;
76807;SDS011;65758;45.458;11.062;2024-02-26T03:11:38;3.90;;;3.30;;
76807;SDS011;65758;45.458;11.062;2024-02-26T03:14:06;6.20;;;3.50;;
76807;SDS011;65758;45.458;11.062;2024-02-26T03:16:33;4.20;;;3.70;;
76807;SDS011;65758;45.458;11.062;2024-02-26T03:19:00;5.00;;;3.60;;
76807;SDS011;65758;45.458;11.062;2024-02-26T03:21:27;5.00;;;3.60;;
76807;SDS011;65758;45.458;11.062;2024-02-26T03:23:54;5.00;;;3.50;;
76807;SDS011;65758;45.458;11.062;2024-02-26T03:26:21;4.80;;;3.40;;
76807;SDS011;65758;45.458;11.062;2024-02-26T03:28:48;5.50;;;3.80;;
76807;SDS011;65758;45.458;11.062;2024-02-26T03:31:15;6.00;;;3.20;;
76807;SDS011;65758;45.458;11.062;2024-02-26T03:33:42;5.40;;;4.10;;
76807;SDS011;65758;45.458;11.062;2024-02-26T03:36:09;4.60;;;3.30;;
76807;SDS011;65758;45.458;11.062;2024-02-26T03:38:36;4.30;;;3.80;;
76807;SDS011;65758;45.458;11.062;2024-02-26T03:41:04;4.00;;;3.20;;
76807;SDS011;65758;45.458;11.062;2024-02-26T03:43:30;4.50;;;3.70;;
76807;SDS011;65758;45.458;11.062;2024-02-26T03:45:58;3.90;;;3.10;;
76807;SDS011;65758;45.458;11.062;2024-02-26T03:48:25;4.90;;;3.50;;
76807;SDS011;65758;45.458;11.062;2024-02-26T03:50:52;4.20;;;3.60;;
76807;SDS011;65758;45.458;11.062;2024-02-26T03:53:19;4.60;;;4.20;;
76807;SDS011;65758;45.458;11.062;2024-02-26T03:55:46;5.20;;;3.30;;
76807;SDS011;65758;45.458;11.062;2024-02-26T03:58:13;4.90;;;3.90;;
76807;SDS011;65758;45.458;11.062;2024-02-26T04:00:40;5.30;;;3.50;;
76807;SDS011;65758;45.458;11.062;2024-02-26T04:03:07;3.70;;;3.40;;
76807;SDS011;65758;45.458;11.062;2024-02-26T04:05:33;4.90;;;3.40;;
76807;SDS011;65758;45.458;11.062;2024-02-26T04:08:00;4.10;;;3.70;;
76807;SDS011;65758;45.458;11.062;2024-02-26T04:10:27;4.70;;;3.30;;
76807;SDS011;65758;45.458;11.062;2024-02-26T04:12:54;3.90;;;3.40;;
76807;SDS011;65758;45.458;11.062;2024-02-26T04:15:21;4.70;;;3.80;;
76807;SDS011;65758;45.458;11.062;2024-02-26T04:17:48;3.60;;;3.30;;
76807;SDS011;65758;45.458;11.062;2024-02-26T04:20:15;5.50;;;3.80;;
76807;SDS011;65758;45.458;11.062;2024-02-26T04:22:43;3.70;;;3.40;;
76807;SDS011;65758;45.458;11.062;2024-02-26T04:25:11;3.70;;;3.20;;
76807;SDS011;65758;45.458;11.062;2024-02-26T04:27:38;4.00;;;3.20;;
76807;SDS011;65758;45.458;11.062;2024-02-26T04:30:06;3.30;;;2.80;;
76807;SDS011;65758;45.458;11.062;2024-02-26T04:32:33;4.10;;;3.40;;
76807;SDS011;65758;45.458;11.062;2024-02-26T04:35:01;3.80;;;3.30;;
76807;SDS011;65758;45.458;11.062;2024-02-26T04:37:29;3.20;;;2.70;;
76807;SDS011;65758;45.458;11.062;2024-02-26T04:39:58;3.20;;;2.90;;
76807;SDS011;65758;45.458;11.062;2024-02-26T04:42:26;4.80;;;3.00;;
76807;SDS011;65758;45.458;11.062;2024-02-26T04:44:54;3.30;;;2.90;;
76807;SDS011;65758;45.458;11.062;2024-02-26T04:47:21;2.90;;;2.70;;
76807;SDS011;65758;45.458;11.062;2024-02-26T04:49:49;3.70;;;3.00;;
76807;SDS011;65758;45.458;11.062;2024-02-26T04:52:18;3.00;;;2.70;;
76807;SDS011;65758;45.458;11.062;2024-02-26T04:54:45;4.80;;;3.10;;
76807;SDS011;65758;45.458;11.062;2024-02-26T04:57:12;3.30;;;3.00;;
76807;SDS011;65758;45.458;11.062;2024-02-26T04:59:39;3.70;;;2.90;;
76807;SDS011;65758;45.458;11.062;2024-02-26T05:02:07;4.70;;;3.00;;
76807;SDS011;65758;45.458;11.062;2024-02-26T05:04:34;3.60;;;2.70;;
76807;SDS011;65758;45.458;11.062;2024-02-26T05:07:01;5.50;;;2.60;;
76807;SDS011;65758;45.458;11.062;2024-02-26T05:09:29;4.50;;;3.10;;
76807;SDS011;65758;45.458;11.062;2024-02-26T05:11:56;4.40;;;3.40;;
76807;SDS011;65758;45.458;11.062;2024-02-26T05:14:23;7.10;;;5.30;;
76807;SDS011;65758;45.458;11.062;2024-02-26T05:16:50;6.60;;;4.40;;
76807;SDS011;65758;45.458;11.062;2024-02-26T05:19:16;8.60;;;3.40;;
76807;SDS011;65758;45.458;11.062;2024-02-26T05:21:44;3.50;;;2.90;;
76807;SDS011;65758;45.458;11.062;2024-02-26T05:24:10;4.00;;;3.10;;
76807;SDS011;65758;45.458;11.062;2024-02-26T05:26:37;5.50;;;3.10;;
76807;SDS011;65758;45.458;11.062;2024-02-26T05:31:31;3.60;;;2.80;;
76807;SDS011;65758;45.458;11.062;2024-02-26T05:33:58;6.70;;;2.90;;
76807;SDS011;65758;45.458;11.062;2024-02-26T05:36:25;3.10;;;2.70;;
76807;SDS011;65758;45.458;11.062;2024-02-26T05:38:52;3.20;;;2.80;;
76807;SDS011;65758;45.458;11.062;2024-02-26T05:41:19;3.60;;;3.10;;
76807;SDS011;65758;45.458;11.062;2024-02-26T05:43:50;3.50;;;3.20;;
76807;SDS011;65758;45.458;11.062;2024-02-26T05:46:17;4.00;;;2.90;;
76807;SDS011;65758;45.458;11.062;2024-02-26T05:48:48;5.20;;;3.20;;
76807;SDS011;65758;45.458;11.062;2024-02-26T05:51:18;2.90;;;2.30;;
76807;SDS011;65758;45.458;11.062;2024-02-26T05:53:45;5.00;;;2.90;;
76807;SDS011;65758;45.458;11.062;2024-02-26T05:56:13;6.20;;;2.70;;
76807;SDS011;65758;45.458;11.062;2024-02-26T05:58:40;4.50;;;2.90;;
76807;SDS011;65758;45.458;11.062;2024-02-26T06:01:07;3.50;;;2.80;;
76807;SDS011;65758;45.458;11.062;2024-02-26T06:03:34;4.00;;;3.20;;
76807;SDS011;65758;45.458;11.062;2024-02-26T06:06:01;4.10;;;3.00;;
76807;SDS011;65758;45.458;11.062;2024-02-26T06:08:28;4.60;;;3.10;;
76807;SDS011;65758;45.458;11.062;2024-02-26T06:10:55;5.00;;;3.40;;
76807;SDS011;65758;45.458;11.062;2024-02-26T06:13:23;3.70;;;3.20;;
76807;SDS011;65758;45.458;11.062;2024-02-26T06:15:49;4.60;;;3.50;;
76807;SDS011;65758;45.458;11.062;2024-02-26T06:18:16;5.10;;;3.50;;
76807;SDS011;65758;45.458;11.062;2024-02-26T06:20:44;3.90;;;3.00;;
76807;SDS011;65758;45.458;11.062;2024-02-26T06:23:12;4.20;;;3.80;;
76807;SDS011;65758;45.458;11.062;2024-02-26T06:25:39;7.40;;;4.00;;
76807;SDS011;65758;45.458;11.062;2024-02-26T06:28:08;7.40;;;4.20;;
76807;SDS011;65758;45.458;11.062;2024-02-26T06:30:35;6.70;;;4.90;;
76807;SDS011;65758;45.458;11.062;2024-02-26T06:33:02;6.50;;;4.40;;
76807;SDS011;65758;45.458;11.062;2024-02-26T06:35:29;5.30;;;4.70;;
76807;SDS011;65758;45.458;11.062;2024-02-26T06:37:56;6.50;;;4.30;;
76807;SDS011;65758;45.458;11.062;2024-02-26T06:40:23;5.40;;;4.60;;
76807;SDS011;65758;45.458;11.062;2024-02-26T06:42:51;8.60;;;4.80;;
76807;SDS011;65758;45.458;11.062;2024-02-26T06:45:18;7.70;;;4.60;;
76807;SDS011;65758;45.458;11.062;2024-02-26T06:47:46;8.60;;;4.40;;
76807;SDS011;65758;45.458;11.062;2024-02-26T06:50:13;8.50;;;5.20;;
76807;SDS011;65758;45.458;11.062;2024-02-26T06:52:42;8.70;;;4.20;;
76807;SDS011;65758;45.458;11.062;2024-02-26T06:55:10;10.30;;;4.50;;
76807;SDS011;65758;45.458;11.062;2024-02-26T06:57:37;8.20;;;4.80;;
76807;SDS011;65758;45.458;11.062;2024-02-26T07:00:04;9.00;;;5.40;;
76807;SDS011;65758;45.458;11.062;2024-02-26T07:02:32;8.60;;;5.70;;
76807;SDS011;65758;45.458;11.062;2024-02-26T07:05:01;6.90;;;4.90;;
76807;SDS011;65758;45.458;11.062;2024-02-26T07:07:30;6.70;;;4.90;;
76807;SDS011;65758;45.458;11.062;2024-02-26T07:09:58;11.50;;;5.40;;
76807;SDS011;65758;45.458;11.062;2024-02-26T07:12:24;8.90;;;5.50;;
76807;SDS011;65758;45.458;11.062;2024-02-26T07:14:51;7.00;;;4.70;;
76807;SDS011;65758;45.458;11.062;2024-02-26T07:17:19;14.80;;;5.40;;
76807;SDS011;65758;45.458;11.062;2024-02-26T07:19:48;5.60;;;4.70;;
76807;SDS011;65758;45.458;11.062;2024-02-26T07:22:15;8.00;;;5.30;;
76807;SDS011;65758;45.458;11.062;2024-02-26T07:24:42;7.10;;;5.50;;
76807;SDS011;65758;45.458;11.062;2024-02-26T07:27:11;8.20;;;6.00;;
76807;SDS011;65758;45.458;11.062;2024-02-26T07:29:38;8.90;;;6.20;;
76807;SDS011;65758;45.458;11.062;2024-02-26T07:32:05;9.90;;;5.60;;
76807;SDS011;65758;45.458;11.062;2024-02-26T07:34:32;7.10;;;5.50;;
76807;SDS011;65758;45.458;11.062;2024-02-26T07:36:59;7.20;;;5.40;;
76807;SDS011;65758;45.458;11.062;2024-02-26T07:39:26;9.90;;;4.90;;
76807;SDS011;65758;45.458;11.062;2024-02-26T07:41:53;9.30;;;5.40;;
76807;SDS011;65758;45.458;11.062;2024-02-26T07:44:20;12.00;;;5.90;;
76807;SDS011;65758;45.458;11.062;2024-02-26T07:46:47;8.70;;;5.60;;
76807;SDS011;65758;45.458;11.062;2024-02-26T07:49:14;8.60;;;6.20;;
76807;SDS011;65758;45.458;11.062;2024-02-26T07:51:41;10.40;;;7.20;;
76807;SDS011;65758;45.458;11.062;2024-02-26T07:54:08;8.80;;;6.90;;
76807;SDS011;65758;45.458;11.062;2024-02-26T07:56:35;7.50;;;6.70;;
76807;SDS011;65758;45.458;11.062;2024-02-26T07:59:02;11.60;;;6.30;;
76807;SDS011;65758;45.458;11.062;2024-02-26T08:01:29;10.80;;;6.60;;
76807;SDS011;65758;45.458;11.062;2024-02-26T08:03:56;10.90;;;7.10;;
76807;SDS011;65758;45.458;11.062;2024-02-26T08:06:23;11.10;;;6.80;;
76807;SDS011;65758;45.458;11.062;2024-02-26T08:08:51;9.50;;;7.10;;
76807;SDS011;65758;45.458;11.062;2024-02-26T08:11:18;10.00;;;6.50;;
76807;SDS011;65758;45.458;11.062;2024-02-26T08:13:45;10.10;;;6.80;;
76807;SDS011;65758;45.458;11.062;2024-02-26T08:16:11;10.60;;;7.20;;
76807;SDS011;65758;45.458;11.062;2024-02-26T08:18:38;10.30;;;7.00;;
76807;SDS011;65758;45.458;11.062;2024-02-26T08:21:06;9.60;;;6.50;;
76807;SDS011;65758;45.458;11.062;2024-02-26T08:23:35;10.20;;;7.60;;
76807;SDS011;65758;45.458;11.062;2024-02-26T08:26:02;10.90;;;7.10;;
76807;SDS011;65758;45.458;11.062;2024-02-26T08:28:30;17.70;;;10.60;;
76807;SDS011;65758;45.458;11.062;2024-02-26T08:30:57;16.20;;;11.10;;
76807;SDS011;65758;45.458;11.062;2024-02-26T08:33:25;23.40;;;12.50;;
76807;SDS011;65758;45.458;11.062;2024-02-26T08:35:52;24.30;;;12.60;;
76807;SDS011;65758;45.458;11.062;2024-02-26T08:38:19;16.10;;;11.40;;
76807;SDS011;65758;45.458;11.062;2024-02-26T08:40:46;15.50;;;10.20;;
76807;SDS011;65758;45.458;11.062;2024-02-26T08:43:12;13.30;;;9.30;;
76807;SDS011;65758;45.458;11.062;2024-02-26T08:45:39;12.50;;;8.80;;
76807;SDS011;65758;45.458;11.062;2024-02-26T08:48:06;14.10;;;9.30;;
76807;SDS011;65758;45.458;11.062;2024-02-26T08:50:34;11.60;;;7.50;;
76807;SDS011;65758;45.458;11.062;2024-02-26T08:53:01;14.20;;;8.50;;
76807;SDS011;65758;45.458;11.062;2024-02-26T08:55:33;11.70;;;7.60;;
76807;SDS011;65758;45.458;11.062;2024-02-26T08:58:01;11.20;;;7.30;;
76807;SDS011;65758;45.458;11.062;2024-02-26T09:00:28;14.50;;;7.90;;
76807;SDS011;65758;45.458;11.062;2024-02-26T09:02:55;11.00;;;8.00;;
76807;SDS011;65758;45.458;11.062;2024-02-26T09:05:22;9.70;;;7.40;;
76807;SDS011;65758;45.458;11.062;2024-02-26T09:07:50;11.60;;;7.20;;
76807;SDS011;65758;45.458;11.062;2024-02-26T09:10:18;6.80;;;4.40;;
76807;SDS011;65758;45.458;11.062;2024-02-26T09:12:45;8.90;;;5.70;;
76807;SDS011;65758;45.458;11.062;2024-02-26T09:15:12;5.30;;;4.00;;
76807;SDS011;65758;45.458;11.062;2024-02-26T09:17:39;6.30;;;5.10;;
76807;SDS011;65758;45.458;11.062;2024-02-26T09:20:06;5.90;;;4.10;;
76807;SDS011;65758;45.458;11.062;2024-02-26T09:22:35;5.60;;;4.40;;
76807;SDS011;65758;45.458;11.062;2024-02-26T09:25:04;7.50;;;4.40;;
76807;SDS011;65758;45.458;11.062;2024-02-26T09:27:33;5.00;;;3.50;;
76807;SDS011;65758;45.458;11.062;2024-02-26T09:29:59;4.80;;;3.80;;
76807;SDS011;65758;45.458;11.062;2024-02-26T09:32:26;4.60;;;4.20;;
76807;SDS011;65758;45.458;11.062;2024-02-26T09:34:53;4.90;;;3.80;;
76807;SDS011;65758;45.458;11.062;2024-02-26T09:37:20;5.30;;;3.80;;
76807;SDS011;65758;45.458;11.062;2024-02-26T09:39:48;5.10;;;3.50;;
76807;SDS011;65758;45.458;11.062;2024-02-26T09:42:15;4.70;;;3.70;;
76807;SDS011;65758;45.458;11.062;2024-02-26T09:44:46;3.60;;;3.30;;
76807;SDS011;65758;45.458;11.062;2024-02-26T09:47:18;5.80;;;4.00;;
76807;SDS011;65758;45.458;11.062;2024-02-26T09:49:47;4.90;;;3.30;;
76807;SDS011;65758;45.458;11.062;2024-02-26T09:52:15;5.70;;;4.90;;
76807;SDS011;65758;45.458;11.062;2024-02-26T09:54:48;4.60;;;4.20;;
76807;SDS011;65758;45.458;11.062;2024-02-26T09:57:15;6.70;;;4.10;;
76807;SDS011;65758;45.458;11.062;2024-02-26T09:59:43;6.50;;;4.80;;
76807;SDS011;65758;45.458;11.062;2024-02-26T10:02:13;5.50;;;3.80;;
76807;SDS011;65758;45.458;11.062;2024-02-26T10:04:41;7.40;;;4.50;;
76807;SDS011;65758;45.458;11.062;2024-02-26T10:07:14;5.20;;;3.80;;
76807;SDS011;65758;45.458;11.062;2024-02-26T10:09:42;5.40;;;4.00;;
76807;SDS011;65758;45.458;11.062;2024-02-26T10:12:10;5.80;;;5.00;;
76807;SDS011;65758;45.458;11.062;2024-02-26T10:14:38;6.70;;;4.80;;
76807;SDS011;65758;45.458;11.062;2024-02-26T10:17:08;8.50;;;5.00;;
76807;SDS011;65758;45.458;11.062;2024-02-26T10:19:35;4.90;;;4.40;;
76807;SDS011;65758;45.458;11.062;2024-02-26T10:22:05;7.20;;;4.70;;
76807;SDS011;65758;45.458;11.062;2024-02-26T10:24:32;5.50;;;4.30;;
76807;SDS011;65758;45.458;11.062;2024-02-26T10:27:03;8.30;;;5.20;;
76807;SDS011;65758;45.458;11.062;2024-02-26T10:29:31;7.40;;;4.70;;
76807;SDS011;65758;45.458;11.062;2024-02-26T10:31:58;8.20;;;5.00;;
76807;SDS011;65758;45.458;11.062;2024-02-26T10:34:25;5.30;;;4.20;;
76807;SDS011;65758;45.458;11.062;2024-02-26T10:36:53;5.70;;;4.40;;
76807;SDS011;65758;45.458;11.062;2024-02-26T10:39:21;5.90;;;4.30;;
76807;SDS011;65758;45.458;11.062;2024-02-26T10:41:49;5.90;;;4.50;;
76807;SDS011;65758;45.458;11.062;2024-02-26T10:44:16;5.80;;;4.30;;
76807;SDS011;65758;45.458;11.062;2024-02-26T10:46:48;6.10;;;4.10;;
76807;SDS011;65758;45.458;11.062;2024-02-26T10:49:19;8.30;;;3.70;;
76807;SDS011;65758;45.458;11.062;2024-02-26T10:51:52;3.50;;;2.60;;
76807;SDS011;65758;45.458;11.062;2024-02-26T10:54:23;5.10;;;4.40;;
76807;SDS011;65758;45.458;11.062;2024-02-26T10:56:55;4.80;;;4.30;;
76807;SDS011;65758;45.458;11.062;2024-02-26T10:59:24;6.30;;;3.70;;
76807;SDS011;65758;45.458;11.062;2024-02-26T11:01:51;5.10;;;3.40;;
76807;SDS011;65758;45.458;11.062;2024-02-26T11:04:18;4.70;;;4.20;;
76807;SDS011;65758;45.458;11.062;2024-02-26T11:06:48;4.60;;;3.80;;
76807;SDS011;65758;45.458;11.062;2024-02-26T11:09:16;3.90;;;3.50;;
76807;SDS011;65758;45.458;11.062;2024-02-26T11:11:46;6.50;;;3.90;;
76807;SDS011;65758;45.458;11.062;2024-02-26T11:14:14;4.10;;;3.10;;
76807;SDS011;65758;45.458;11.062;2024-02-26T11:16:42;5.60;;;3.60;;
76807;SDS011;65758;45.458;11.062;2024-02-26T11:19:09;3.70;;;2.60;;
76807;SDS011;65758;45.458;11.062;2024-02-26T11:21:39;5.40;;;3.50;;
76807;SDS011;65758;45.458;11.062;2024-02-26T11:24:12;3.90;;;3.50;;
76807;SDS011;65758;45.458;11.062;2024-02-26T11:26:43;4.70;;;3.20;;
76807;SDS011;65758;45.458;11.062;2024-02-26T11:29:21;6.40;;;3.20;;
76807;SDS011;65758;45.458;11.062;2024-02-26T11:31:49;3.60;;;2.90;;
76807;SDS011;65758;45.458;11.062;2024-02-26T11:34:16;7.90;;;3.60;;
76807;SDS011;65758;45.458;11.062;2024-02-26T11:36:45;3.40;;;2.90;;
76807;SDS011;65758;45.458;11.062;2024-02-26T11:39:13;3.60;;;3.30;;
76807;SDS011;65758;45.458;11.062;2024-02-26T11:41:43;3.30;;;3.00;;
76807;SDS011;65758;45.458;11.062;2024-02-26T11:44:10;3.20;;;2.90;;
76807;SDS011;65758;45.458;11.062;2024-02-26T11:46:41;4.60;;;3.20;;
76807;SDS011;65758;45.458;11.062;2024-02-26T11:51:56;3.20;;;2.70;;
76807;SDS011;65758;45.458;11.062;2024-02-26T11:59:57;3.40;;;2.80;;
76807;SDS011;65758;45.458;11.062;2024-02-26T12:02:44;5.10;;;2.70;;
76807;SDS011;65758;45.458;11.062;2024-02-26T12:05:13;2.50;;;2.30;;
76807;SDS011;65758;45.458;11.062;2024-02-26T12:07:53;2.30;;;2.10;;
76807;SDS011;65758;45.458;11.062;2024-02-26T12:12:53;3.70;;;2.50;;
76807;SDS011;65758;45.458;11.062;2024-02-26T12:15:33;3.80;;;2.50;;
76807;SDS011;65758;45.458;11.062;2024-02-26T12:18:03;2.90;;;2.60;;
76807;SDS011;65758;45.458;11.062;2024-02-26T12:20:32;2.90;;;2.30;;
76807;SDS011;65758;45.458;11.062;2024-02-26T12:22:59;2.80;;;2.50;;
76807;SDS011;65758;45.458;11.062;2024-02-26T12:25:26;3.40;;;2.10;;
76807;SDS011;65758;45.458;11.062;2024-02-26T12:27:55;6.80;;;2.80;;
76807;SDS011;65758;45.458;11.062;2024-02-26T12:30:23;3.10;;;1.60;;
76807;SDS011;65758;45.458;11.062;2024-02-26T12:32:52;2.80;;;2.60;;
76807;SDS011;65758;45.458;11.062;2024-02-26T12:35:24;3.50;;;2.30;;
76807;SDS011;65758;45.458;11.062;2024-02-26T12:37:52;3.20;;;2.30;;
76807;SDS011;65758;45.458;11.062;2024-02-26T12:40:22;2.00;;;1.90;;
76807;SDS011;65758;45.458;11.062;2024-02-26T12:42:48;2.50;;;2.30;;
76807;SDS011;65758;45.458;11.062;2024-02-26T12:45:15;3.50;;;1.80;;
76807;SDS011;65758;45.458;11.062;2024-02-26T12:47:43;3.60;;;1.70;;
76807;SDS011;65758;45.458;11.062;2024-02-26T12:50:17;5.30;;;2.60;;
76807;SDS011;65758;45.458;11.062;2024-02-26T12:52:45;2.60;;;2.30;;
76807;SDS011;65758;45.458;11.062;2024-02-26T12:55:14;2.30;;;2.10;;
76807;SDS011;65758;45.458;11.062;2024-02-26T12:57:44;4.30;;;2.40;;
76807;SDS011;65758;45.458;11.062;2024-02-26T13:00:12;3.90;;;2.50;;
76807;SDS011;65758;45.458;11.062;2024-02-26T13:02:42;2.80;;;1.80;;
76807;SDS011;65758;45.458;11.062;2024-02-26T13:05:11;4.10;;;1.70;;
76807;SDS011;65758;45.458;11.062;2024-02-26T13:07:43;3.10;;;2.20;;
76807;SDS011;65758;45.458;11.062;2024-02-26T13:10:11;4.00;;;1.70;;
76807;SDS011;65758;45.458;11.062;2024-02-26T13:12:43;1.70;;;1.40;;
76807;SDS011;65758;45.458;11.062;2024-02-26T13:15:14;1.30;;;1.10;;
76807;SDS011;65758;45.458;11.062;2024-02-26T13:17:43;1.90;;;1.50;;
76807;SDS011;65758;45.458;11.062;2024-02-26T13:20:11;1.80;;;1.70;;
76807;SDS011;65758;45.458;11.062;2024-02-26T13:22:39;3.40;;;1.70;;
76807;SDS011;65758;45.458;11.062;2024-02-26T13:25:06;1.50;;;1.40;;
76807;SDS011;65758;45.458;11.062;2024-02-26T13:27:34;2.30;;;1.50;;
76807;SDS011;65758;45.458;11.062;2024-02-26T13:30:02;1.70;;;1.40;;
76807;SDS011;65758;45.458;11.062;2024-02-26T13:32:28;2.00;;;1.70;;
76807;SDS011;65758;45.458;11.062;2024-02-26T13:35:04;1.90;;;1.70;;
76807;SDS011;65758;45.458;11.062;2024-02-26T13:37:35;1.50;;;1.40;;
76807;SDS011;65758;45.458;11.062;2024-02-26T13:40:10;2.00;;;1.50;;
76807;SDS011;65758;45.458;11.062;2024-02-26T13:42:38;2.20;;;2.00;;
76807;SDS011;65758;45.458;11.062;2024-02-26T13:45:05;1.90;;;1.60;;
76807;SDS011;65758;45.458;11.062;2024-02-26T13:47:33;1.70;;;1.60;;
76807;SDS011;65758;45.458;11.062;2024-02-26T13:50:02;2.00;;;1.80;;
76807;SDS011;65758;45.458;11.062;2024-02-26T13:52:29;1.70;;;1.60;;
76807;SDS011;65758;45.458;11.062;2024-02-26T13:54:59;2.70;;;2.00;;
76807;SDS011;65758;45.458;11.062;2024-02-26T13:57:26;2.70;;;1.90;;
76807;SDS011;65758;45.458;11.062;2024-02-26T13:59:54;1.60;;;1.40;;
76807;SDS011;65758;45.458;11.062;2024-02-26T14:02:21;2.00;;;1.60;;
76807;SDS011;65758;45.458;11.062;2024-02-26T14:04:48;2.10;;;1.80;;
76807;SDS011;65758;45.458;11.062;2024-02-26T14:07:15;1.80;;;1.70;;
76807;SDS011;65758;45.458;11.062;2024-02-26T14:09:43;2.70;;;1.70;;
76807;SDS011;65758;45.458;11.062;2024-02-26T14:12:16;2.00;;;1.50;;
76807;SDS011;65758;45.458;11.062;2024-02-26T14:14:47;2.10;;;1.70;;
76807;SDS011;65758;45.458;11.062;2024-02-26T14:17:15;2.10;;;1.70;;
76807;SDS011;65758;45.458;11.062;2024-02-26T14:19:42;2.10;;;1.80;;
76807;SDS011;65758;45.458;11.062;2024-02-26T14:22:14;2.00;;;1.70;;
76807;SDS011;65758;45.458;11.062;2024-02-26T14:24:42;1.90;;;1.80;;
76807;SDS011;65758;45.458;11.062;2024-02-26T14:27:09;2.40;;;1.90;;
76807;SDS011;65758;45.458;11.062;2024-02-26T14:29:41;1.50;;;1.40;;
76807;SDS011;65758;45.458;11.062;2024-02-26T14:32:09;2.70;;;2.00;;
76807;SDS011;65758;45.458;11.062;2024-02-26T14:34:36;3.00;;;1.90;;
76807;SDS011;65758;45.458;11.062;2024-02-26T14:37:04;1.70;;;1.60;;
76807;SDS011;65758;45.458;11.062;2024-02-26T14:39:31;3.20;;;1.70;;
76807;SDS011;65758;45.458;11.062;2024-02-26T14:41:59;5.20;;;2.20;;
76807;SDS011;65758;45.458;11.062;2024-02-26T14:44:27;2.20;;;1.80;;
76807;SDS011;65758;45.458;11.062;2024-02-26T14:46:54;2.20;;;1.80;;
76807;SDS011;65758;45.458;11.062;2024-02-26T14:49:20;2.90;;;2.00;;
76807;SDS011;65758;45.458;11.062;2024-02-26T14:51:47;2.80;;;1.80;;